createdAt,value
2023-03-13T00:00:01.974Z,100076.38
2023-03-13T00:01:57.465Z,100084.13
2023-03-13T00:03:53.039Z,100077.22
2023-03-13T00:05:48.149Z,100079.97
2023-03-13T00:07:43.134Z,100079.69
2023-03-13T00:09:41.178Z,100086.72
2023-03-13T00:11:36.451Z,100084.66
2023-03-13T00:13:31.853Z,100072.44
2023-03-13T00:15:26.754Z,100078.22
2023-03-13T00:17:22.025Z,100080.03
2023-03-13T00:19:18.473Z,100075.75
2023-03-13T00:21:13.702Z,100069.69
2023-03-13T00:23:08.999Z,100071.91
2023-03-13T00:25:06.759Z,100068.50
2023-03-13T00:27:03.413Z,100070.97
2023-03-13T00:28:58.953Z,100070.97
2023-03-13T00:30:54.440Z,100065.63
2023-03-13T00:32:49.946Z,100065.47
2023-03-13T00:34:45.247Z,100055.97
2023-03-13T00:36:40.463Z,100060.25
2023-03-13T00:38:36.340Z,100055.16
2023-03-13T00:40:33.883Z,100057.19
2023-03-13T00:42:28.797Z,100059.56
2023-03-13T00:44:24.122Z,100056.34
2023-03-13T00:46:21.676Z,100059.56
2023-03-13T00:48:16.677Z,100048.72
2023-03-13T00:50:13.140Z,100051.19
2023-03-13T00:52:08.643Z,100049.41
2023-03-13T00:54:05.099Z,100051.31
2023-03-13T00:56:04.302Z,100046.22
2023-03-13T00:57:59.568Z,100044.56
2023-03-13T00:59:54.521Z,100031.38
2023-03-13T01:01:50.530Z,100034.00
2023-03-13T01:03:47.504Z,100035.50
2023-03-13T01:05:42.905Z,100033.03
2023-03-13T01:07:38.582Z,100036.59
2023-03-13T01:09:33.901Z,100037.56
2023-03-13T01:11:34.906Z,100039.22
2023-03-13T01:13:30.731Z,100025.31
2023-03-13T01:15:25.852Z,100028.75
2023-03-13T01:17:21.164Z,100021.72
2023-03-13T01:19:18.291Z,100030.16
2023-03-13T01:21:14.360Z,100028.50
2023-03-13T01:23:09.322Z,100025.50
2023-03-13T01:25:04.274Z,100015.53
2023-03-13T01:27:02.183Z,100023.38
2023-03-13T01:28:57.913Z,100027.81
2023-03-13T01:30:53.606Z,100023.38
2023-03-13T01:32:48.649Z,100026.97
2023-03-13T01:34:43.971Z,100023.66
2023-03-13T01:36:39.908Z,100027.09
2023-03-13T01:38:35.237Z,100024.75
2023-03-13T01:40:30.293Z,100016.22
2023-03-13T01:42:27.978Z,100016.22
2023-03-13T01:44:25.813Z,100014.31
2023-03-13T01:46:24.964Z,100010.72
2023-03-13T01:48:20.575Z,100004.53
2023-03-13T01:50:16.056Z,100007.16
2023-03-13T01:52:15.632Z,100008.13
2023-03-13T01:54:14.861Z,100008.81
2023-03-13T01:56:14.681Z,99995.59
2023-03-13T01:58:12.470Z,99994.19
2023-03-13T02:00:13.848Z,99993.13
2023-03-13T02:02:09.835Z,99983.16
2023-03-13T02:04:05.191Z,99981.28
2023-03-13T02:06:03.288Z,99980.16
2023-03-13T02:08:01.131Z,99978.94
2023-03-13T02:09:59.424Z,99981.44
2023-03-13T02:12:00.046Z,99978.25
2023-03-13T02:14:01.087Z,99976.59
2023-03-13T02:15:56.925Z,99971.38
2023-03-13T02:17:53.091Z,99962.19
2023-03-13T02:19:51.888Z,99966.19
2023-03-13T02:21:53.088Z,99955.16
2023-03-13T02:23:55.390Z,99955.03
2023-03-13T02:25:54.904Z,99948.97
2023-03-13T02:27:51.008Z,99954.91
2023-03-13T02:29:46.538Z,99959.41
2023-03-13T02:31:42.563Z,99946.34
2023-03-13T02:33:41.760Z,99946.91
2023-03-13T02:35:38.923Z,99942.53
2023-03-13T02:37:35.529Z,99941.00
2023-03-13T02:39:33.869Z,99940.16
2023-03-13T02:41:32.473Z,99942.53
2023-03-13T02:43:32.159Z,99939.06
2023-03-13T02:45:27.276Z,99934.25
2023-03-13T02:47:24.072Z,99933.59
2023-03-13T02:49:28.056Z,99933.59
2023-03-13T02:51:31.437Z,99914.72
2023-03-13T02:53:26.401Z,99919.28
2023-03-13T02:55:27.173Z,99915.03
2023-03-13T02:57:24.786Z,99915.31
2023-03-13T02:59:20.671Z,99919.84
2023-03-13T03:01:15.898Z,99914.47
2023-03-13T03:03:10.971Z,99902.81
2023-03-13T03:05:06.708Z,99893.84
2023-03-13T03:07:01.899Z,99890.53
2023-03-13T03:08:57.208Z,99887.81
2023-03-13T03:10:52.257Z,99889.72
2023-03-13T03:12:50.203Z,99880.91
2023-03-13T03:14:45.813Z,99881.88
2023-03-13T03:16:41.629Z,99880.22
2023-03-13T03:18:37.144Z,99872.94
2023-03-13T03:20:32.755Z,99879.69
2023-03-13T03:22:27.752Z,99875.41
2023-03-13T03:24:23.181Z,99871.84
2023-03-13T03:26:18.699Z,99872.38
2023-03-13T03:28:16.301Z,99875.94
2023-03-13T03:30:13.602Z,99869.47
2023-03-13T03:32:09.102Z,99869.19
2023-03-13T03:34:04.312Z,99864.53
2023-03-13T03:36:02.763Z,99865.22
2023-03-13T03:37:57.838Z,99860.13
2023-03-13T03:39:53.100Z,99859.97
2023-03-13T03:41:48.037Z,99862.47
2023-03-13T03:43:47.360Z,99858.59
2023-03-13T03:45:42.333Z,99855.31
2023-03-13T03:47:37.602Z,99846.59
2023-03-13T03:49:32.515Z,99848.81
2023-03-13T03:51:27.956Z,99848.94
2023-03-13T03:53:23.039Z,99839.59
2023-03-13T03:55:18.132Z,99831.59
2023-03-13T03:57:13.471Z,99840.81
2023-03-13T03:59:11.100Z,99829.94
2023-03-13T04:01:06.925Z,99836.00
2023-03-13T04:03:02.833Z,99819.63
2023-03-13T04:04:57.884Z,99818.50
2023-03-13T04:06:53.249Z,99813.94
2023-03-13T04:08:48.197Z,99813.94
2023-03-13T04:10:43.824Z,99819.34
2023-03-13T04:12:38.763Z,99806.78
2023-03-13T04:14:36.643Z,99798.91
2023-03-13T04:16:31.700Z,99804.31
2023-03-13T04:18:27.041Z,99802.66
2023-03-13T04:20:22.415Z,99800.44
2023-03-13T04:22:17.664Z,99794.09
2023-03-13T04:24:12.784Z,99793.94
2023-03-13T04:26:07.937Z,99788.16
2023-03-13T04:28:03.250Z,99788.03
2023-03-13T04:30:00.786Z,99788.59
2023-03-13T04:31:55.688Z,99771.06
2023-03-13T04:33:51.026Z,99776.97
2023-03-13T04:35:47.136Z,99771.31
2023-03-13T04:37:42.454Z,99765.25
2023-03-13T04:39:37.443Z,99764.56
2023-03-13T04:41:32.441Z,99751.34
2023-03-13T04:43:27.735Z,99750.09
2023-03-13T04:45:25.326Z,99752.31
2023-03-13T04:47:20.632Z,99771.31
2023-03-13T04:49:16.400Z,99750.50
2023-03-13T04:51:11.381Z,99740.88
2023-03-13T04:53:06.952Z,99747.22
2023-03-13T04:55:02.040Z,99731.38
2023-03-13T04:56:57.010Z,99739.38
2023-03-13T04:58:52.480Z,99737.59
2023-03-13T05:00:50.117Z,99725.31
2023-03-13T05:02:45.079Z,99724.34
2023-03-13T05:04:40.718Z,99733.53
2023-03-13T05:06:35.939Z,99724.75
2023-03-13T05:08:30.873Z,99720.75
2023-03-13T05:10:26.118Z,99713.72
2023-03-13T05:12:21.184Z,99706.97
2023-03-13T05:14:16.253Z,99699.41
2023-03-13T05:16:14.254Z,99695.84
2023-03-13T05:18:09.590Z,99687.97
2023-03-13T05:20:07.859Z,99689.91
2023-03-13T05:22:03.481Z,99685.66
2023-03-13T05:23:58.424Z,99680.41
2023-03-13T05:25:53.708Z,99676.16
2023-03-13T05:27:48.815Z,99672.28
2023-03-13T05:29:43.886Z,99684.38
2023-03-13T05:31:41.815Z,99679.03
2023-03-13T05:33:36.903Z,99666.91
2023-03-13T05:35:32.059Z,99670.19
2023-03-13T05:37:27.483Z,99664.00
2023-03-13T05:39:22.748Z,99664.97
2023-03-13T05:41:18.083Z,99657.25
2023-03-13T05:43:13.148Z,99645.13
2023-03-13T05:45:09.442Z,99645.97
2023-03-13T05:47:07.716Z,99649.25
2023-03-13T05:49:02.729Z,99650.72
2023-03-13T05:50:57.743Z,99636.56
2023-03-13T05:52:53.379Z,99631.34
2023-03-13T05:54:48.289Z,99626.94
2023-03-13T05:56:44.921Z,99627.75
2023-03-13T05:58:40.171Z,99625.13
2023-03-13T06:00:35.519Z,99618.09
2023-03-13T06:02:33.103Z,99613.69
2023-03-13T06:04:28.548Z,99608.16
2023-03-13T06:06:23.592Z,99611.91
2023-03-13T06:08:20.803Z,99606.94
2023-03-13T06:10:16.786Z,99605.25
2023-03-13T06:12:13.551Z,99611.31
2023-03-13T06:14:08.652Z,99609.81
2023-03-13T06:16:03.739Z,99609.69
2023-03-13T06:18:01.615Z,99606.41
2023-03-13T06:19:56.655Z,99595.09
2023-03-13T06:21:51.937Z,99592.34
2023-03-13T06:23:47.016Z,99581.84
2023-03-13T06:25:42.329Z,99584.47
2023-03-13T06:27:37.266Z,99576.22
2023-03-13T06:29:32.573Z,99571.97
2023-03-13T06:31:27.594Z,99573.84
2023-03-13T06:33:26.349Z,99568.38
2023-03-13T06:35:21.457Z,99564.47
2023-03-13T06:37:16.844Z,99558.41
2023-03-13T06:39:12.727Z,99555.78
2023-03-13T06:41:08.171Z,99543.66
2023-03-13T06:43:03.180Z,99552.19
2023-03-13T06:44:58.463Z,99533.19
2023-03-13T06:46:53.631Z,99530.72
2023-03-13T06:48:53.641Z,99535.00
2023-03-13T06:50:48.824Z,99523.84
2023-03-13T06:52:44.523Z,99523.56
2023-03-13T06:54:39.833Z,99511.25
2023-03-13T06:56:35.455Z,99509.63
2023-03-13T06:58:32.867Z,99501.31
2023-03-13T07:00:28.759Z,99503.94
2023-03-13T07:02:24.632Z,99499.50
2023-03-13T07:04:27.708Z,99499.59
2023-03-13T07:06:22.774Z,99498.94
2023-03-13T07:08:19.546Z,99510.22
2023-03-13T07:10:14.899Z,99494.50
2023-03-13T07:12:10.912Z,99487.78
2023-03-13T07:14:16.452Z,99496.97
2023-03-13T07:16:14.834Z,99488.97
2023-03-13T07:18:09.935Z,99509.78
2023-03-13T07:20:10.715Z,99498.31
2023-03-13T07:22:06.064Z,99492.09
2023-03-13T07:24:01.674Z,99483.28
2023-03-13T07:25:57.851Z,99475.41
2023-03-13T07:27:56.903Z,99479.69
2023-03-13T07:29:52.892Z,99462.69
2023-03-13T07:31:47.939Z,99468.91
2023-03-13T07:33:44.859Z,99470.72
2023-03-13T07:35:42.494Z,99476.88
2023-03-13T07:37:37.857Z,99470.84
2023-03-13T07:39:32.854Z,99473.31
2023-03-13T07:41:28.217Z,99476.63
2023-03-13T07:43:24.082Z,99466.28
2023-03-13T07:45:19.480Z,99457.59
2023-03-13T07:47:14.555Z,99458.94
2023-03-13T07:49:10.183Z,99450.91
2023-03-13T07:51:09.973Z,99457.97
2023-03-13T07:53:06.974Z,99455.03
2023-03-13T07:55:02.142Z,99450.47
2023-03-13T07:57:04.563Z,99442.28
2023-03-13T07:58:59.505Z,99441.19
2023-03-13T08:00:55.203Z,99444.59
2023-03-13T08:02:50.160Z,99426.94
2023-03-13T08:04:45.627Z,99449.38
2023-03-13T08:06:43.847Z,99442.19
2023-03-13T08:08:39.541Z,99436.78
2023-03-13T08:10:34.565Z,99435.78
2023-03-13T08:12:29.594Z,99430.09
2023-03-13T08:14:25.760Z,99432.09
2023-03-13T08:16:24.175Z,99430.81
2023-03-13T08:18:19.169Z,99421.00
2023-03-13T08:20:15.085Z,99411.31
2023-03-13T08:22:12.648Z,99409.84
2023-03-13T08:24:10.707Z,99420.16
2023-03-13T08:26:08.393Z,99415.44
2023-03-13T08:28:03.431Z,99441.34
2023-03-13T08:29:58.689Z,99433.00
2023-03-13T08:31:54.357Z,99417.44
2023-03-13T08:33:50.824Z,99411.09
2023-03-13T08:35:45.810Z,99397.16
2023-03-13T08:37:43.477Z,99432.88
2023-03-13T08:39:38.980Z,99407.97
2023-03-13T08:41:37.553Z,99404.38
2023-03-13T08:43:32.488Z,99409.59
2023-03-13T08:45:27.920Z,99409.59
2023-03-13T08:47:22.874Z,99399.63
2023-03-13T08:49:18.218Z,99388.34
2023-03-13T08:51:18.049Z,99392.28
2023-03-13T08:53:15.698Z,99387.84
2023-03-13T08:55:12.047Z,99396.53
2023-03-13T08:57:07.226Z,99385.88
2023-03-13T08:59:04.513Z,99385.41
2023-03-13T09:01:04.717Z,99371.97
2023-03-13T09:03:00.363Z,99367.72
2023-03-13T09:04:55.827Z,99359.50
2023-03-13T09:06:50.893Z,99366.25
2023-03-13T09:08:49.136Z,99355.44
2023-03-13T09:10:44.547Z,99369.06
2023-03-13T09:12:39.607Z,99354.44
2023-03-13T09:14:36.689Z,99357.06
2023-03-13T09:16:34.962Z,99339.53
2023-03-13T09:18:31.006Z,99365.28
2023-03-13T09:20:26.187Z,99368.41
2023-03-13T09:22:21.488Z,99354.16
2023-03-13T09:24:20.220Z,99347.75
2023-03-13T09:26:16.495Z,99336.75
2023-03-13T09:28:11.419Z,99350.88
2023-03-13T09:30:07.416Z,99347.41
2023-03-13T09:32:03.912Z,99351.66
2023-03-13T09:33:59.367Z,99349.22
2023-03-13T09:35:54.919Z,99352.84
2023-03-13T09:37:50.361Z,99366.63
2023-03-13T09:39:48.557Z,99377.91
2023-03-13T09:41:51.262Z,99347.25
2023-03-13T09:43:51.017Z,99355.13
2023-03-13T09:45:49.682Z,99340.19
2023-03-13T09:47:49.740Z,99349.56
2023-03-13T09:49:49.211Z,99363.84
2023-03-13T09:51:49.599Z,99329.38
2023-03-13T09:53:48.102Z,99317.88
2023-03-13T09:55:48.401Z,99330.19
2023-03-13T09:57:49.899Z,99322.66
2023-03-13T09:59:51.374Z,99331.81
2023-03-13T10:01:47.949Z,99330.50
2023-03-13T10:03:48.569Z,99315.69
2023-03-13T10:05:50.878Z,99339.34
2023-03-13T10:07:46.839Z,99323.13
2023-03-13T10:09:43.223Z,99342.63
2023-03-13T10:11:50.110Z,99346.75
2023-03-13T10:13:50.499Z,99332.63
2023-03-13T10:15:51.681Z,99317.88
2023-03-13T10:17:47.498Z,99326.88
2023-03-13T10:19:45.910Z,99338.38
2023-03-13T10:21:43.062Z,99315.56
2023-03-13T10:23:43.470Z,99325.09
2023-03-13T10:25:41.089Z,99342.28
2023-03-13T10:27:51.465Z,99325.06
2023-03-13T10:29:46.656Z,99326.38
2023-03-13T10:31:42.472Z,99330.63
2023-03-13T10:33:39.829Z,99320.44
2023-03-13T10:35:38.106Z,99310.56
2023-03-13T10:37:34.886Z,99313.69
2023-03-13T10:39:32.034Z,99312.38
2023-03-13T10:41:31.967Z,99315.94
2023-03-13T10:43:31.766Z,99310.34
2023-03-13T10:45:27.194Z,99299.50
2023-03-13T10:47:25.528Z,99299.16
2023-03-13T10:49:23.187Z,99307.97
2023-03-13T10:51:25.070Z,99301.41
2023-03-13T10:53:33.984Z,99290.41
2023-03-13T10:55:29.857Z,99285.78
2023-03-13T10:57:32.475Z,99266.66
2023-03-13T10:59:31.188Z,99271.22
2023-03-13T11:01:28.804Z,99265.78
2023-03-13T11:03:34.566Z,99268.06
2023-03-13T11:05:40.863Z,99274.44
2023-03-13T11:07:38.285Z,99271.63
2023-03-13T11:09:34.049Z,99266.31
2023-03-13T11:11:31.154Z,99261.16
2023-03-13T11:13:38.339Z,99246.66
2023-03-13T11:15:43.651Z,99268.00
2023-03-13T11:17:42.709Z,99236.47
2023-03-13T11:20:00.868Z,99239.94
2023-03-13T11:22:07.653Z,99247.00
2023-03-13T11:24:10.672Z,99219.78
2023-03-13T11:26:14.910Z,99239.75
2023-03-13T11:28:31.592Z,99250.41
2023-03-13T11:30:53.334Z,99220.06
2023-03-13T11:32:54.227Z,99221.81
2023-03-13T11:34:54.521Z,99240.97
2023-03-13T11:36:58.622Z,99209.75
2023-03-13T11:38:57.170Z,99201.38
2023-03-13T11:41:05.340Z,99203.00
2023-03-13T11:43:25.735Z,99222.41
2023-03-13T11:45:40.357Z,99210.34
2023-03-13T11:47:59.520Z,99232.69
2023-03-13T11:50:05.252Z,99213.06
2023-03-13T11:52:34.060Z,99201.38
2023-03-13T11:54:52.909Z,99190.69
2023-03-13T11:56:54.335Z,99202.13
2023-03-13T11:59:10.420Z,99204.94
2023-03-13T12:01:10.709Z,99209.28
2023-03-13T12:03:15.693Z,99194.16
2023-03-13T12:05:13.689Z,99190.53
2023-03-13T12:07:19.371Z,99194.41
2023-03-13T12:09:19.153Z,99198.69
2023-03-13T12:11:20.771Z,99203.81
2023-03-13T12:13:22.044Z,99202.50
2023-03-13T12:15:24.929Z,99191.88
2023-03-13T12:17:32.639Z,99174.00
2023-03-13T12:19:35.849Z,99187.44
2023-03-13T12:21:35.201Z,99192.53
2023-03-13T12:23:38.775Z,99174.09
2023-03-13T12:25:39.360Z,99203.38
2023-03-13T12:27:41.041Z,99165.50
2023-03-13T12:29:48.859Z,99187.34
2023-03-13T12:31:49.153Z,99170.47
2023-03-13T12:33:49.490Z,99177.22
2023-03-13T12:35:49.905Z,99175.53
2023-03-13T12:37:52.998Z,99156.25
2023-03-13T12:39:53.840Z,99168.53
2023-03-13T12:41:57.528Z,99162.22
2023-03-13T12:44:07.683Z,99146.94
2023-03-13T12:46:24.574Z,99158.38
2023-03-13T12:48:51.958Z,99166.69
2023-03-13T12:51:02.823Z,99139.41
2023-03-13T12:53:29.006Z,99146.69
2023-03-13T12:55:47.198Z,99133.72
2023-03-13T12:58:12.360Z,99135.25
2023-03-13T13:00:18.452Z,99114.53
2023-03-13T13:02:20.379Z,99118.69
2023-03-13T13:04:18.163Z,99136.47
2023-03-13T13:06:17.768Z,99116.53
2023-03-13T13:08:27.523Z,99124.25
2023-03-13T13:10:26.299Z,99108.34
2023-03-13T13:12:23.166Z,99098.41
2023-03-13T13:14:53.660Z,99103.38
2023-03-13T13:16:51.718Z,99083.69
2023-03-13T13:18:46.661Z,99082.84
2023-03-13T13:20:50.421Z,99115.91
2023-03-13T13:22:53.133Z,99097.41
2023-03-13T13:24:52.856Z,99130.66
2023-03-13T13:26:53.933Z,99142.25
2023-03-13T13:28:49.281Z,99116.97
2023-03-13T13:30:44.448Z,99113.69
2023-03-13T13:32:42.535Z,99087.72
2023-03-13T13:35:03.405Z,99080.72
2023-03-13T13:36:59.093Z,99091.03
2023-03-13T13:38:58.463Z,99079.72
2023-03-13T13:41:04.317Z,99076.72
2023-03-13T13:43:01.410Z,99077.22
2023-03-13T13:45:00.831Z,99084.94
2023-03-13T13:46:59.531Z,99097.56
2023-03-13T13:49:11.105Z,99081.06
2023-03-13T13:51:26.414Z,99080.47
2023-03-13T13:53:34.764Z,99101.34
2023-03-13T13:55:45.565Z,99097.25
2023-03-13T13:57:43.673Z,99093.19
2023-03-13T13:59:44.892Z,99098.84
2023-03-13T14:01:42.270Z,99076.06
2023-03-13T14:03:42.869Z,99074.22
2023-03-13T14:05:43.864Z,99067.69
2023-03-13T14:08:03.282Z,99073.41
2023-03-13T14:10:05.916Z,99058.72
2023-03-13T14:12:04.332Z,99072.66
2023-03-13T14:14:12.520Z,99096.28
2023-03-13T14:16:24.959Z,99088.91
2023-03-13T14:18:25.562Z,99061.44
2023-03-13T14:20:27.318Z,99063.50
2023-03-13T14:22:22.803Z,99074.28
2023-03-13T14:24:19.416Z,99080.34
2023-03-13T14:26:17.986Z,99063.00
2023-03-13T14:28:24.257Z,99076.97
2023-03-13T14:30:21.911Z,99083.16
2023-03-13T14:32:20.660Z,99063.50
2023-03-13T14:34:16.377Z,99058.84
2023-03-13T14:36:12.427Z,99085.13
2023-03-13T14:38:07.761Z,99062.88
2023-03-13T14:40:11.644Z,99059.84
2023-03-13T14:42:09.284Z,99064.19
2023-03-13T14:44:10.020Z,99057.16
2023-03-13T14:46:18.526Z,99051.75
2023-03-13T14:48:22.186Z,99060.16
2023-03-13T14:50:18.029Z,99037.09
2023-03-13T14:52:22.943Z,99048.25
2023-03-13T14:54:29.411Z,99045.59
2023-03-13T14:56:34.627Z,99037.28
2023-03-13T14:58:31.984Z,99046.84
2023-03-13T15:00:41.186Z,99067.69
2023-03-13T15:02:37.566Z,99077.44
2023-03-13T15:04:59.663Z,99070.38
2023-03-13T15:07:05.101Z,99031.72
2023-03-13T15:09:19.916Z,99039.06
2023-03-13T15:11:24.898Z,99024.44
2023-03-13T15:13:26.514Z,99025.44
2023-03-13T15:15:22.917Z,99025.38
2023-03-13T15:17:23.862Z,99021.56
2023-03-13T15:19:19.364Z,99010.47
2023-03-13T15:21:32.737Z,99020.97
2023-03-13T15:23:30.175Z,99007.03
2023-03-13T15:25:26.707Z,99016.69
2023-03-13T15:27:24.751Z,99009.06
2023-03-13T15:29:20.959Z,99017.41
2023-03-13T15:31:16.777Z,99009.94
2023-03-13T15:33:18.725Z,99003.19
2023-03-13T15:35:25.847Z,99000.31
2023-03-13T15:37:21.548Z,98994.84
2023-03-13T15:39:19.454Z,98989.25
2023-03-13T15:41:15.054Z,98994.41
2023-03-13T15:43:10.732Z,98990.94
2023-03-13T15:45:06.366Z,98992.66
2023-03-13T15:47:01.673Z,98985.34
2023-03-13T15:48:59.461Z,98981.09
2023-03-13T15:50:59.384Z,98991.56
2023-03-13T15:52:54.642Z,98986.84
2023-03-13T15:54:49.675Z,98981.38
2023-03-13T15:56:45.029Z,98975.94
2023-03-13T15:58:40.330Z,98969.19
2023-03-13T16:00:35.685Z,98955.63
2023-03-13T16:02:30.595Z,98957.22
2023-03-13T16:04:28.556Z,98965.31
2023-03-13T16:06:31.044Z,98974.75
2023-03-13T16:08:36.549Z,98972.13
2023-03-13T16:10:34.616Z,98979.09
2023-03-13T16:12:29.841Z,98954.66
2023-03-13T16:14:24.852Z,98947.09
2023-03-13T16:16:23.095Z,98955.25
2023-03-13T16:18:22.598Z,98940.94
2023-03-13T16:20:23.690Z,98957.69
2023-03-13T16:22:18.876Z,98933.00
2023-03-13T16:24:14.536Z,98920.63
2023-03-13T16:26:18.118Z,98912.03
2023-03-13T16:28:14.844Z,98930.25
2023-03-13T16:30:18.549Z,98911.91
2023-03-13T16:32:15.596Z,98913.75
2023-03-13T16:34:11.315Z,98918.41
2023-03-13T16:36:17.942Z,98913.97
2023-03-13T16:38:14.412Z,98916.19
2023-03-13T16:40:18.141Z,98914.81
2023-03-13T16:42:13.524Z,98902.38
2023-03-13T16:44:09.189Z,98899.91
2023-03-13T16:46:12.291Z,98907.69
2023-03-13T16:48:07.983Z,98902.00
2023-03-13T16:50:03.245Z,98895.03
2023-03-13T16:52:01.305Z,98887.56
2023-03-13T16:53:59.774Z,98898.44
2023-03-13T16:55:55.785Z,98888.19
2023-03-13T16:57:50.768Z,98882.41
2023-03-13T16:59:46.238Z,98884.16
2023-03-13T17:01:41.223Z,98874.94
2023-03-13T17:03:36.579Z,98873.56
2023-03-13T17:05:31.795Z,98874.16
2023-03-13T17:07:30.139Z,98868.91
2023-03-13T17:09:25.184Z,98879.53
2023-03-13T17:11:22.185Z,98877.44
2023-03-13T17:13:19.515Z,98876.41
2023-03-13T17:15:14.850Z,98885.38
2023-03-13T17:17:14.828Z,98879.50
2023-03-13T17:19:10.370Z,98891.75
2023-03-13T17:21:05.307Z,98867.97
2023-03-13T17:23:03.699Z,98899.97
2023-03-13T17:24:58.657Z,98881.59
2023-03-13T17:26:53.982Z,98876.72
2023-03-13T17:28:50.300Z,98881.66
2023-03-13T17:30:45.566Z,98897.75
2023-03-13T17:32:40.750Z,98886.72
2023-03-13T17:34:36.149Z,98883.28
2023-03-13T17:36:31.400Z,98887.75
2023-03-13T17:38:29.312Z,98881.06
2023-03-13T17:40:26.731Z,98892.88
2023-03-13T17:42:22.425Z,98890.41
2023-03-13T17:44:17.675Z,98885.94
2023-03-13T17:46:23.418Z,98883.53
2023-03-13T17:48:18.776Z,98888.84
2023-03-13T17:50:19.592Z,98905.56
2023-03-13T17:52:18.379Z,98890.09
2023-03-13T17:54:16.860Z,98882.81
2023-03-13T17:56:17.056Z,98891.19
2023-03-13T17:58:12.625Z,98885.22
2023-03-13T18:00:21.820Z,98883.59
2023-03-13T18:02:19.304Z,98903.75
2023-03-13T18:04:14.553Z,98892.81
2023-03-13T18:06:19.704Z,98870.19
2023-03-13T18:08:14.769Z,98867.16
2023-03-13T18:10:21.859Z,98872.88
2023-03-13T18:12:17.819Z,98887.31
2023-03-13T18:14:13.915Z,98887.53
2023-03-13T18:16:19.066Z,98875.91
2023-03-13T18:18:19.305Z,98893.00
2023-03-13T18:20:19.449Z,98888.94
2023-03-13T18:22:17.403Z,98859.59
2023-03-13T18:24:12.639Z,98860.00
2023-03-13T18:26:23.130Z,98847.53
2023-03-13T18:28:18.053Z,98848.94
2023-03-13T18:30:25.009Z,98858.59
2023-03-13T18:32:21.505Z,98853.88
2023-03-13T18:34:17.023Z,98852.44
2023-03-13T18:36:19.777Z,98852.06
2023-03-13T18:38:15.788Z,98852.66
2023-03-13T18:40:18.960Z,98852.59
2023-03-13T18:42:17.118Z,98873.25
2023-03-13T18:44:15.635Z,98858.97
2023-03-13T18:46:24.249Z,98862.88
2023-03-13T18:48:19.415Z,98855.16
2023-03-13T18:50:23.698Z,98844.59
2023-03-13T18:52:18.893Z,98844.59
2023-03-13T18:54:14.241Z,98825.66
2023-03-13T18:56:18.271Z,98839.50
2023-03-13T18:58:16.282Z,98865.97
2023-03-13T19:00:18.780Z,98848.47
2023-03-13T19:02:16.771Z,98849.94
2023-03-13T19:04:11.917Z,98834.66
2023-03-13T19:06:18.159Z,98834.22
2023-03-13T19:08:13.484Z,98836.09
2023-03-13T19:10:20.618Z,98834.91
2023-03-13T19:12:16.045Z,98828.16
2023-03-13T19:14:14.434Z,98824.91
2023-03-13T19:16:16.523Z,98828.59
2023-03-13T19:18:14.384Z,98820.03
2023-03-13T19:20:13.776Z,98843.63
2023-03-13T19:22:09.137Z,98821.66
2023-03-13T19:24:04.492Z,98802.28
2023-03-13T19:25:59.808Z,98804.94
2023-03-13T19:27:54.780Z,98808.00
2023-03-13T19:29:52.895Z,98804.56
2023-03-13T19:31:48.428Z,98809.88
2023-03-13T19:33:43.842Z,98813.31
2023-03-13T19:35:38.759Z,98807.66
2023-03-13T19:37:34.023Z,98794.63
2023-03-13T19:39:29.500Z,98784.19
2023-03-13T19:41:24.758Z,98776.50
2023-03-13T19:43:19.723Z,98785.25
2023-03-13T19:45:21.825Z,98774.13
2023-03-13T19:47:18.337Z,98775.97
2023-03-13T19:49:14.853Z,98778.84
2023-03-13T19:51:10.249Z,98776.56
2023-03-13T19:53:05.535Z,98778.44
2023-03-13T19:55:05.056Z,98780.66
2023-03-13T19:57:00.883Z,98784.09
2023-03-13T19:59:00.691Z,98783.72
2023-03-13T20:01:00.739Z,98789.81
2023-03-13T20:03:03.417Z,98800.03
2023-03-13T20:04:59.068Z,98794.13
2023-03-13T20:06:54.338Z,98796.78
2023-03-13T20:08:50.881Z,98781.50
2023-03-13T20:10:46.164Z,98769.50
2023-03-13T20:12:41.965Z,98777.06
2023-03-13T20:14:37.681Z,98764.22
2023-03-13T20:16:36.312Z,98763.44
2023-03-13T20:18:31.651Z,98765.81
2023-03-13T20:20:26.971Z,98766.06
2023-03-13T20:22:21.954Z,98760.38
2023-03-13T20:24:17.955Z,98770.13
2023-03-13T20:26:15.577Z,98751.84
2023-03-13T20:28:10.821Z,98751.22
2023-03-13T20:30:07.006Z,98750.38
2023-03-13T20:32:05.954Z,98764.03
2023-03-13T20:34:01.959Z,98755.69
2023-03-13T20:36:00.267Z,98761.19
2023-03-13T20:37:57.396Z,98755.47
2023-03-13T20:39:52.672Z,98766.47
2023-03-13T20:41:47.688Z,98739.00
2023-03-13T20:43:43.079Z,98745.31
2023-03-13T20:45:38.344Z,98746.13
2023-03-13T20:47:36.250Z,98731.06
2023-03-13T20:49:31.245Z,98748.97
2023-03-13T20:51:26.453Z,98766.47
2023-03-13T20:53:21.817Z,98740.03
2023-03-13T20:55:17.236Z,98749.78
2023-03-13T20:57:12.804Z,98747.31
2023-03-13T20:59:08.138Z,98742.63
2023-03-13T21:01:04.550Z,98754.81
2023-03-13T21:03:02.564Z,98733.06
2023-03-13T21:04:57.630Z,98756.66
2023-03-13T21:06:53.030Z,98729.56
2023-03-13T21:08:48.434Z,98737.72
2023-03-13T21:10:44.684Z,98731.84
2023-03-13T21:12:39.663Z,98730.00
2023-03-13T21:14:37.301Z,98740.97
2023-03-13T21:16:32.318Z,98732.88
2023-03-13T21:18:30.180Z,98731.84
2023-03-13T21:20:26.196Z,98733.47
2023-03-13T21:22:21.858Z,98728.75
2023-03-13T21:24:16.819Z,98740.19
2023-03-13T21:26:12.759Z,98741.66
2023-03-13T21:28:10.801Z,98733.09
2023-03-13T21:30:10.373Z,98746.28
2023-03-13T21:32:05.428Z,98746.31
2023-03-13T21:34:03.301Z,98766.50
2023-03-13T21:35:58.276Z,98769.16
2023-03-13T21:37:53.607Z,98765.69
2023-03-13T21:39:52.384Z,98773.63
2023-03-13T21:41:47.651Z,98754.06
2023-03-13T21:43:43.994Z,98753.31
2023-03-13T21:45:40.133Z,98748.22
2023-03-13T21:47:37.079Z,98757.81
2023-03-13T21:49:35.125Z,98759.22
2023-03-13T21:51:30.821Z,98747.44
2023-03-13T21:53:26.145Z,98754.56
2023-03-13T21:55:21.524Z,98742.97
2023-03-13T21:57:17.124Z,98750.50
2023-03-13T21:59:12.232Z,98757.22
2023-03-13T22:01:08.073Z,98743.16
2023-03-13T22:03:03.149Z,98730.38
2023-03-13T22:05:01.093Z,98725.72
2023-03-13T22:06:56.414Z,98727.34
2023-03-13T22:08:52.581Z,98726.72
2023-03-13T22:10:52.207Z,98719.81
2023-03-13T22:12:47.522Z,98728.94
2023-03-13T22:14:42.494Z,98738.72
2023-03-13T22:16:37.816Z,98732.63
2023-03-13T22:18:33.099Z,98727.97
2023-03-13T22:20:31.265Z,98735.25
2023-03-13T22:22:26.619Z,98744.44
2023-03-13T22:24:22.178Z,98726.72
2023-03-13T22:26:17.812Z,98727.97
2023-03-13T22:28:14.010Z,98730.63
2023-03-13T22:30:10.852Z,98724.09
2023-03-13T22:32:07.285Z,98719.81
2023-03-13T22:34:02.646Z,98704.38
2023-03-13T22:36:01.352Z,98705.38
2023-03-13T22:37:56.672Z,98698.06
2023-03-13T22:39:54.005Z,98703.00
2023-03-13T22:41:49.421Z,98708.06
2023-03-13T22:43:45.084Z,98708.28
2023-03-13T22:45:40.566Z,98707.47
2023-03-13T22:47:36.086Z,98698.94
2023-03-13T22:49:31.115Z,98693.84
2023-03-13T22:51:28.932Z,98698.94
2023-03-13T22:53:23.887Z,98707.91
2023-03-13T22:55:19.207Z,98709.16
2023-03-13T22:57:14.142Z,98705.69
2023-03-13T22:59:09.442Z,98698.56
2023-03-13T23:01:08.118Z,98710.34
2023-03-13T23:03:03.680Z,98705.28
2023-03-13T23:05:01.095Z,98703.25